Keflavik, Iceland

3:41 PM GMT on August 31, 2016 (GMT +0000)
Keflavik | | Change Station

Elev 177 ft 63.98 °N, 22.59 °W | Updated 11 minutes ago

Partly Cloudy
Partly Cloudy
52 °F
Feels Like 52 °F
N
22
Wind Variable Wind from NNW

Today
High -- | Low -- °F
--% Chance of Precip.
Yesterday
High -- | Low -- °F
Precip. -- in
Pressure 29.56 in
Visibility 6.2 miles
Clouds Few 2600 ft
Dew Point 43 °F
Humidity 71%
Rainfall 0.00 in
Snow Depth Not available.
6:11 AM 8:47 PM
Waning Crescent, 1% visible
METAR BIKF 311530Z 34019KT 9999 FEW026 11/06 Q1001
Pressure 29.56 in
Visibility 6.2 miles
Clouds Few 2600 ft
Dew Point 43 °F
Humidity 71%
Rainfall 0.00 in
Snow Depth Not available.
6:11 AM 8:47 PM
Waning Crescent, 1% visible
METAR BIKF 311530Z 34019KT 9999 FEW026 11/06 Q1001

10-Day Weather Forecast

×

Almanac

Astronomy

Aug. 31, 2016 Rise Set
Actual Time
Civil Twilight
Nautical Twilight
Astronomical Twilight
Moon
Length of Visible Light
Length of Day
Tomorrow will be .
, % of the Moon is Illuminated

Today's Extremes

Country Highs Country Lows

Community

WunderPhotos

Upload Photos

1,936,098 photos uploaded!

WunderBlog® & News

Nearby

Air Quality

  Air Quality AQ Index Pollutant
Not available.

Snow Depth

Station Depth Elevation

Earthquake Activity

City Distance Mag. Time & Date
Minimum magnitude displayed is 2.5.

Coastal Water Temperatures

Place Temperature

Stations

Nearby Weather Stations

Station Location Temp. Windchill Dew Point Humidity Wind Precip. Elev Updated Type